sensor_id;sensor_type;location;lat;lon;timestamp;temperature;humidity
36372;DHT22;22398;51.346;12.372;2023-06-14T00:03:22;13.20;68.40
36372;DHT22;22398;51.346;12.372;2023-06-14T00:08:26;13.10;69.00
36372;DHT22;22398;51.346;12.372;2023-06-14T00:13:31;13.00;69.30
36372;DHT22;22398;51.346;12.372;2023-06-14T00:18:34;12.90;69.70
36372;DHT22;22398;51.346;12.372;2023-06-14T00:23:37;12.90;70.20
36372;DHT22;22398;51.346;12.372;2023-06-14T00:28:41;12.80;70.80
36372;DHT22;22398;51.346;12.372;2023-06-14T00:33:44;12.70;71.40
36372;DHT22;22398;51.346;12.372;2023-06-14T00:38:48;12.60;71.90
36372;DHT22;22398;51.346;12.372;2023-06-14T00:43:52;12.60;72.40
36372;DHT22;22398;51.346;12.372;2023-06-14T00:48:58;12.50;72.90
36372;DHT22;22398;51.346;12.372;2023-06-14T00:54:02;12.40;73.50
36372;DHT22;22398;51.346;12.372;2023-06-14T00:59:07;12.40;74.00
36372;DHT22;22398;51.346;12.372;2023-06-14T01:04:10;12.40;74.50
36372;DHT22;22398;51.346;12.372;2023-06-14T01:09:15;12.30;74.90
36372;DHT22;22398;51.346;12.372;2023-06-14T01:14:23;12.30;75.40
36372;DHT22;22398;51.346;12.372;2023-06-14T01:19:28;12.20;75.90
36372;DHT22;22398;51.346;12.372;2023-06-14T01:24:35;12.20;76.30
36372;DHT22;22398;51.346;12.372;2023-06-14T01:29:38;12.20;76.80
36372;DHT22;22398;51.346;12.372;2023-06-14T01:34:49;12.10;77.30
36372;DHT22;22398;51.346;12.372;2023-06-14T01:39:54;12.00;77.90
36372;DHT22;22398;51.346;12.372;2023-06-14T01:44:58;12.00;78.40
36372;DHT22;22398;51.346;12.372;2023-06-14T01:50:02;11.90;78.90
36372;DHT22;22398;51.346;12.372;2023-06-14T01:55:08;11.90;79.50
36372;DHT22;22398;51.346;12.372;2023-06-14T02:00:13;11.80;80.10
36372;DHT22;22398;51.346;12.372;2023-06-14T02:05:18;11.80;80.50
36372;DHT22;22398;51.346;12.372;2023-06-14T02:10:24;11.70;81.10
36372;DHT22;22398;51.346;12.372;2023-06-14T02:15:29;11.70;81.50
36372;DHT22;22398;51.346;12.372;2023-06-14T02:20:36;11.60;81.90
36372;DHT22;22398;51.346;12.372;2023-06-14T02:25:41;11.60;82.70
36372;DHT22;22398;51.346;12.372;2023-06-14T02:30:47;11.50;83.50
36372;DHT22;22398;51.346;12.372;2023-06-14T02:35:50;11.50;83.90
36372;DHT22;22398;51.346;12.372;2023-06-14T02:40:56;11.40;84.40
36372;DHT22;22398;51.346;12.372;2023-06-14T02:46:00;11.50;85.50
36372;DHT22;22398;51.346;12.372;2023-06-14T02:51:03;11.50;85.90
36372;DHT22;22398;51.346;12.372;2023-06-14T02:56:11;11.40;86.30
36372;DHT22;22398;51.346;12.372;2023-06-14T03:01:15;11.40;87.00
36372;DHT22;22398;51.346;12.372;2023-06-14T03:06:19;11.40;87.50
36372;DHT22;22398;51.346;12.372;2023-06-14T03:11:27;11.40;88.40
36372;DHT22;22398;51.346;12.372;2023-06-14T03:16:31;11.40;88.50
36372;DHT22;22398;51.346;12.372;2023-06-14T03:21:35;11.30;88.80
36372;DHT22;22398;51.346;12.372;2023-06-14T03:26:40;11.30;89.40
36372;DHT22;22398;51.346;12.372;2023-06-14T03:31:56;11.30;90.00
36372;DHT22;22398;51.346;12.372;2023-06-14T03:37:05;11.30;90.10
36372;DHT22;22398;51.346;12.372;2023-06-14T03:42:10;11.30;90.40
36372;DHT22;22398;51.346;12.372;2023-06-14T03:47:15;11.40;90.50
36372;DHT22;22398;51.346;12.372;2023-06-14T03:52:19;11.40;90.80
36372;DHT22;22398;51.346;12.372;2023-06-14T03:57:25;11.40;90.80
36372;DHT22;22398;51.346;12.372;2023-06-14T04:02:30;11.50;91.20
36372;DHT22;22398;51.346;12.372;2023-06-14T04:07:34;11.50;91.00
36372;DHT22;22398;51.346;12.372;2023-06-14T04:12:44;11.70;91.30
36372;DHT22;22398;51.346;12.372;2023-06-14T04:17:48;11.70;91.40
36372;DHT22;22398;51.346;12.372;2023-06-14T04:22:52;11.90;91.40
36372;DHT22;22398;51.346;12.372;2023-06-14T04:27:58;11.90;91.50
36372;DHT22;22398;51.346;12.372;2023-06-14T04:33:02;12.00;91.50
36372;DHT22;22398;51.346;12.372;2023-06-14T04:38:08;12.00;91.60
36372;DHT22;22398;51.346;12.372;2023-06-14T04:43:14;12.20;91.50
36372;DHT22;22398;51.346;12.372;2023-06-14T04:48:22;12.20;91.50
36372;DHT22;22398;51.346;12.372;2023-06-14T04:53:27;12.40;91.50
36372;DHT22;22398;51.346;12.372;2023-06-14T04:58:33;12.50;91.60
36372;DHT22;22398;51.346;12.372;2023-06-14T05:03:37;16.70;90.60
36372;DHT22;22398;51.346;12.372;2023-06-14T05:08:40;17.10;89.50
36372;DHT22;22398;51.346;12.372;2023-06-14T05:13:45;20.00;73.90
36372;DHT22;22398;51.346;12.372;2023-06-14T05:18:49;20.20;73.10
36372;DHT22;22398;51.346;12.372;2023-06-14T05:23:53;19.80;65.30
36372;DHT22;22398;51.346;12.372;2023-06-14T05:28:58;19.20;65.90
36372;DHT22;22398;51.346;12.372;2023-06-14T05:34:02;16.30;69.50
36372;DHT22;22398;51.346;12.372;2023-06-14T05:39:06;15.90;70.50
36372;DHT22;22398;51.346;12.372;2023-06-14T05:44:12;15.00;73.10
36372;DHT22;22398;51.346;12.372;2023-06-14T05:49:15;15.00;74.00
36372;DHT22;22398;51.346;12.372;2023-06-14T05:54:19;14.80;75.60
36372;DHT22;22398;51.346;12.372;2023-06-14T05:59:24;14.80;75.80
36372;DHT22;22398;51.346;12.372;2023-06-14T06:04:27;14.90;76.80
36372;DHT22;22398;51.346;12.372;2023-06-14T06:09:31;14.90;77.20
36372;DHT22;22398;51.346;12.372;2023-06-14T06:14:36;15.20;77.20
36372;DHT22;22398;51.346;12.372;2023-06-14T06:19:40;15.10;77.10
36372;DHT22;22398;51.346;12.372;2023-06-14T06:24:43;15.40;76.90
36372;DHT22;22398;51.346;12.372;2023-06-14T06:29:48;15.50;77.30
36372;DHT22;22398;51.346;12.372;2023-06-14T06:34:52;15.70;76.60
36372;DHT22;22398;51.346;12.372;2023-06-14T06:39:55;15.70;76.90
36372;DHT22;22398;51.346;12.372;2023-06-14T06:45:00;16.10;76.00
36372;DHT22;22398;51.346;12.372;2023-06-14T06:50:04;16.20;76.20
36372;DHT22;22398;51.346;12.372;2023-06-14T06:55:08;16.30;75.40
36372;DHT22;22398;51.346;12.372;2023-06-14T07:00:15;16.40;75.50
36372;DHT22;22398;51.346;12.372;2023-06-14T07:05:20;16.80;74.60
36372;DHT22;22398;51.346;12.372;2023-06-14T07:10:24;16.80;74.60
36372;DHT22;22398;51.346;12.372;2023-06-14T07:15:31;17.10;73.40
36372;DHT22;22398;51.346;12.372;2023-06-14T07:20:34;17.10;73.20
36372;DHT22;22398;51.346;12.372;2023-06-14T07:25:40;17.40;72.50
36372;DHT22;22398;51.346;12.372;2023-06-14T07:30:45;17.40;72.60
36372;DHT22;22398;51.346;12.372;2023-06-14T07:35:48;17.70;71.40
36372;DHT22;22398;51.346;12.372;2023-06-14T07:40:54;17.90;71.70
36372;DHT22;22398;51.346;12.372;2023-06-14T07:45:58;18.30;70.00
36372;DHT22;22398;51.346;12.372;2023-06-14T07:51:08;18.50;70.00
36372;DHT22;22398;51.346;12.372;2023-06-14T07:56:11;18.90;68.20
36372;DHT22;22398;51.346;12.372;2023-06-14T08:01:17;19.30;68.20
36372;DHT22;22398;51.346;12.372;2023-06-14T08:06:21;19.60;66.60
36372;DHT22;22398;51.346;12.372;2023-06-14T08:11:25;19.80;66.40
36372;DHT22;22398;51.346;12.372;2023-06-14T08:16:30;20.10;65.50
36372;DHT22;22398;51.346;12.372;2023-06-14T08:21:33;20.30;64.60
36372;DHT22;22398;51.346;12.372;2023-06-14T08:26:38;20.40;63.40
36372;DHT22;22398;51.346;12.372;2023-06-14T08:31:43;20.40;62.80
36372;DHT22;22398;51.346;12.372;2023-06-14T08:36:47;20.50;62.10
36372;DHT22;22398;51.346;12.372;2023-06-14T08:41:50;20.90;61.60
36372;DHT22;22398;51.346;12.372;2023-06-14T08:46:56;20.80;61.00
36372;DHT22;22398;51.346;12.372;2023-06-14T08:52:01;21.00;61.10
36372;DHT22;22398;51.346;12.372;2023-06-14T08:57:05;21.10;60.20
36372;DHT22;22398;51.346;12.372;2023-06-14T09:02:11;21.00;59.40
36372;DHT22;22398;51.346;12.372;2023-06-14T09:07:15;20.90;58.90
36372;DHT22;22398;51.346;12.372;2023-06-14T09:12:19;21.20;58.10
36372;DHT22;22398;51.346;12.372;2023-06-14T09:17:24;21.60;57.80
36372;DHT22;22398;51.346;12.372;2023-06-14T09:22:29;22.10;57.20
36372;DHT22;22398;51.346;12.372;2023-06-14T09:27:33;22.60;56.30
36372;DHT22;22398;51.346;12.372;2023-06-14T09:32:39;22.70;55.80
36372;DHT22;22398;51.346;12.372;2023-06-14T09:37:43;22.70;55.20
36372;DHT22;22398;51.346;12.372;2023-06-14T09:42:46;23.00;54.90
36372;DHT22;22398;51.346;12.372;2023-06-14T09:47:51;23.10;54.10
36372;DHT22;22398;51.346;12.372;2023-06-14T09:53:08;23.70;53.60
36372;DHT22;22398;51.346;12.372;2023-06-14T09:58:13;23.60;52.60
36372;DHT22;22398;51.346;12.372;2023-06-14T10:03:21;23.90;52.80
36372;DHT22;22398;51.346;12.372;2023-06-14T10:08:25;23.80;52.30
36372;DHT22;22398;51.346;12.372;2023-06-14T10:13:31;23.90;51.70
36372;DHT22;22398;51.346;12.372;2023-06-14T10:18:39;24.30;50.70
36372;DHT22;22398;51.346;12.372;2023-06-14T10:23:45;24.50;49.90
36372;DHT22;22398;51.346;12.372;2023-06-14T10:28:56;24.60;49.50
36372;DHT22;22398;51.346;12.372;2023-06-14T10:34:01;24.80;49.20
36372;DHT22;22398;51.346;12.372;2023-06-14T10:39:05;25.00;48.70
36372;DHT22;22398;51.346;12.372;2023-06-14T10:44:11;24.40;48.70
36372;DHT22;22398;51.346;12.372;2023-06-14T10:49:42;23.50;49.40
36372;DHT22;22398;51.346;12.372;2023-06-14T10:54:56;23.10;49.90
36372;DHT22;22398;51.346;12.372;2023-06-14T11:00:02;23.10;50.20
36372;DHT22;22398;51.346;12.372;2023-06-14T11:05:15;22.80;50.30
36372;DHT22;22398;51.346;12.372;2023-06-14T11:10:26;22.80;50.70
36372;DHT22;22398;51.346;12.372;2023-06-14T11:15:34;22.70;51.00
36372;DHT22;22398;51.346;12.372;2023-06-14T11:20:39;22.90;51.10
36372;DHT22;22398;51.346;12.372;2023-06-14T11:25:43;22.80;51.10
36372;DHT22;22398;51.346;12.372;2023-06-14T11:30:46;23.00;51.30
36372;DHT22;22398;51.346;12.372;2023-06-14T11:35:52;23.50;51.10
36372;DHT22;22398;51.346;12.372;2023-06-14T11:40:58;23.70;50.80
36372;DHT22;22398;51.346;12.372;2023-06-14T11:46:01;23.30;50.80
36372;DHT22;22398;51.346;12.372;2023-06-14T11:51:10;23.20;51.00
36372;DHT22;22398;51.346;12.372;2023-06-14T11:56:14;22.90;51.20
36372;DHT22;22398;51.346;12.372;2023-06-14T12:01:19;23.10;51.00
36372;DHT22;22398;51.346;12.372;2023-06-14T12:06:27;23.40;50.80
36372;DHT22;22398;51.346;12.372;2023-06-14T12:11:35;23.70;50.60
36372;DHT22;22398;51.346;12.372;2023-06-14T12:16:39;23.80;50.30
36372;DHT22;22398;51.346;12.372;2023-06-14T12:21:46;23.80;50.20
36372;DHT22;22398;51.346;12.372;2023-06-14T12:26:51;24.60;50.10
36372;DHT22;22398;51.346;12.372;2023-06-14T12:31:54;24.90;49.30
36372;DHT22;22398;51.346;12.372;2023-06-14T12:37:00;24.60;49.40
36372;DHT22;22398;51.346;12.372;2023-06-14T12:42:05;24.10;49.80
36372;DHT22;22398;51.346;12.372;2023-06-14T12:47:08;23.80;50.30
36372;DHT22;22398;51.346;12.372;2023-06-14T12:52:12;23.90;50.90
36372;DHT22;22398;51.346;12.372;2023-06-14T12:57:16;24.10;50.80
36372;DHT22;22398;51.346;12.372;2023-06-14T13:02:19;24.30;50.90
36372;DHT22;22398;51.346;12.372;2023-06-14T13:07:28;24.00;51.10
36372;DHT22;22398;51.346;12.372;2023-06-14T13:12:31;24.30;50.70
36372;DHT22;22398;51.346;12.372;2023-06-14T13:17:35;24.70;50.30
36372;DHT22;22398;51.346;12.372;2023-06-14T13:22:42;24.60;50.40
36372;DHT22;22398;51.346;12.372;2023-06-14T13:27:45;24.80;50.50
36372;DHT22;22398;51.346;12.372;2023-06-14T13:32:49;24.50;50.70
36372;DHT22;22398;51.346;12.372;2023-06-14T13:37:55;24.70;51.50
36372;DHT22;22398;51.346;12.372;2023-06-14T13:42:58;24.70;50.60
36372;DHT22;22398;51.346;12.372;2023-06-14T13:48:01;25.10;50.30
36372;DHT22;22398;51.346;12.372;2023-06-14T13:53:07;25.50;50.20
36372;DHT22;22398;51.346;12.372;2023-06-14T13:58:10;25.40;49.80
36372;DHT22;22398;51.346;12.372;2023-06-14T14:03:14;25.40;49.90
36372;DHT22;22398;51.346;12.372;2023-06-14T14:08:19;25.30;49.80
36372;DHT22;22398;51.346;12.372;2023-06-14T14:13:22;25.40;49.60
36372;DHT22;22398;51.346;12.372;2023-06-14T14:18:27;25.40;49.80
36372;DHT22;22398;51.346;12.372;2023-06-14T14:23:34;25.10;49.80
36372;DHT22;22398;51.346;12.372;2023-06-14T14:28:40;24.90;50.00
36372;DHT22;22398;51.346;12.372;2023-06-14T14:33:43;24.90;50.30
36372;DHT22;22398;51.346;12.372;2023-06-14T14:38:48;25.40;50.10
36372;DHT22;22398;51.346;12.372;2023-06-14T14:43:53;26.00;49.80
36372;DHT22;22398;51.346;12.372;2023-06-14T14:48:58;25.90;49.40
36372;DHT22;22398;51.346;12.372;2023-06-14T14:54:03;25.70;49.40
36372;DHT22;22398;51.346;12.372;2023-06-14T14:59:07;25.50;49.70
36372;DHT22;22398;51.346;12.372;2023-06-14T15:04:11;25.40;49.40
36372;DHT22;22398;51.346;12.372;2023-06-14T15:09:16;25.10;49.40
36372;DHT22;22398;51.346;12.372;2023-06-14T15:14:19;24.70;49.60
36372;DHT22;22398;51.346;12.372;2023-06-14T15:19:22;24.30;49.80
36372;DHT22;22398;51.346;12.372;2023-06-14T15:24:27;24.30;49.90
36372;DHT22;22398;51.346;12.372;2023-06-14T15:29:44;24.10;50.20
36372;DHT22;22398;51.346;12.372;2023-06-14T15:34:52;24.40;50.50
36372;DHT22;22398;51.346;12.372;2023-06-14T15:39:57;24.80;50.40
36372;DHT22;22398;51.346;12.372;2023-06-14T15:45:00;25.20;50.00
36372;DHT22;22398;51.346;12.372;2023-06-14T15:50:04;25.50;49.50
36372;DHT22;22398;51.346;12.372;2023-06-14T15:55:11;25.30;49.10
36372;DHT22;22398;51.346;12.372;2023-06-14T16:00:15;24.90;49.20
36372;DHT22;22398;51.346;12.372;2023-06-14T16:05:18;24.50;49.60
36372;DHT22;22398;51.346;12.372;2023-06-14T16:10:24;24.40;49.90
36372;DHT22;22398;51.346;12.372;2023-06-14T16:15:29;23.90;50.30
36372;DHT22;22398;51.346;12.372;2023-06-14T16:20:32;23.10;51.20
36372;DHT22;22398;51.346;12.372;2023-06-14T16:25:37;22.50;52.20
36372;DHT22;22398;51.346;12.372;2023-06-14T16:30:40;22.60;53.10
36372;DHT22;22398;51.346;12.372;2023-06-14T16:35:44;23.80;52.70
36372;DHT22;22398;51.346;12.372;2023-06-14T16:40:49;25.00;51.50
36372;DHT22;22398;51.346;12.372;2023-06-14T16:45:52;24.70;50.70
36372;DHT22;22398;51.346;12.372;2023-06-14T16:50:55;25.00;51.40
36372;DHT22;22398;51.346;12.372;2023-06-14T16:56:00;25.80;50.70
36372;DHT22;22398;51.346;12.372;2023-06-14T17:01:04;26.80;49.80
36372;DHT22;22398;51.346;12.372;2023-06-14T17:06:08;27.20;49.00
36372;DHT22;22398;51.346;12.372;2023-06-14T17:11:13;26.90;48.50
36372;DHT22;22398;51.346;12.372;2023-06-14T17:16:17;25.80;48.80
36372;DHT22;22398;51.346;12.372;2023-06-14T17:21:21;25.40;49.20
36372;DHT22;22398;51.346;12.372;2023-06-14T17:26:26;25.20;49.10
36372;DHT22;22398;51.346;12.372;2023-06-14T17:31:29;24.80;49.50
36372;DHT22;22398;51.346;12.372;2023-06-14T17:36:33;24.70;50.10
36372;DHT22;22398;51.346;12.372;2023-06-14T17:41:38;25.10;49.60
36372;DHT22;22398;51.346;12.372;2023-06-14T17:46:41;25.60;49.50
36372;DHT22;22398;51.346;12.372;2023-06-14T17:51:46;25.40;48.90
36372;DHT22;22398;51.346;12.372;2023-06-14T17:56:51;24.80;49.30
36372;DHT22;22398;51.346;12.372;2023-06-14T18:01:54;24.10;49.60
36372;DHT22;22398;51.346;12.372;2023-06-14T18:06:58;23.60;50.10
36372;DHT22;22398;51.346;12.372;2023-06-14T18:12:03;23.00;50.70
36372;DHT22;22398;51.346;12.372;2023-06-14T18:17:10;22.70;51.20
36372;DHT22;22398;51.346;12.372;2023-06-14T18:22:13;22.50;51.80
36372;DHT22;22398;51.346;12.372;2023-06-14T18:27:18;22.30;52.20
36372;DHT22;22398;51.346;12.372;2023-06-14T18:32:22;22.00;52.80
36372;DHT22;22398;51.346;12.372;2023-06-14T18:37:25;21.90;53.20
36372;DHT22;22398;51.346;12.372;2023-06-14T18:42:30;21.70;53.50
36372;DHT22;22398;51.346;12.372;2023-06-14T18:47:34;21.50;53.80
36372;DHT22;22398;51.346;12.372;2023-06-14T18:52:37;21.20;54.10
36372;DHT22;22398;51.346;12.372;2023-06-14T18:57:42;20.90;54.60
36372;DHT22;22398;51.346;12.372;2023-06-14T19:02:46;20.70;55.00
36372;DHT22;22398;51.346;12.372;2023-06-14T19:07:50;20.40;55.00
36372;DHT22;22398;51.346;12.372;2023-06-14T19:12:54;20.30;55.90
36372;DHT22;22398;51.346;12.372;2023-06-14T19:17:58;20.20;56.40
36372;DHT22;22398;51.346;12.372;2023-06-14T19:23:03;20.00;56.80
36372;DHT22;22398;51.346;12.372;2023-06-14T19:28:08;19.90;57.50
36372;DHT22;22398;51.346;12.372;2023-06-14T19:33:11;19.70;58.00
36372;DHT22;22398;51.346;12.372;2023-06-14T19:38:15;19.50;58.50
36372;DHT22;22398;51.346;12.372;2023-06-14T19:43:19;19.30;59.10
36372;DHT22;22398;51.346;12.372;2023-06-14T19:48:23;19.00;59.30
36372;DHT22;22398;51.346;12.372;2023-06-14T19:53:26;18.80;60.20
36372;DHT22;22398;51.346;12.372;2023-06-14T19:58:30;18.60;60.50
36372;DHT22;22398;51.346;12.372;2023-06-14T20:03:34;18.50;61.30
36372;DHT22;22398;51.346;12.372;2023-06-14T20:08:37;18.30;61.50
36372;DHT22;22398;51.346;12.372;2023-06-14T20:13:42;18.20;62.40
36372;DHT22;22398;51.346;12.372;2023-06-14T20:18:46;18.20;63.00
36372;DHT22;22398;51.346;12.372;2023-06-14T20:23:49;18.00;63.40
36372;DHT22;22398;51.346;12.372;2023-06-14T20:28:54;17.90;63.90
36372;DHT22;22398;51.346;12.372;2023-06-14T20:33:57;17.80;64.40
36372;DHT22;22398;51.346;12.372;2023-06-14T20:39:01;17.80;65.00
36372;DHT22;22398;51.346;12.372;2023-06-14T20:44:06;17.60;65.20
36372;DHT22;22398;51.346;12.372;2023-06-14T20:49:11;17.50;65.50
36372;DHT22;22398;51.346;12.372;2023-06-14T20:54:14;17.40;66.00
36372;DHT22;22398;51.346;12.372;2023-06-14T20:59:19;17.50;66.30
36372;DHT22;22398;51.346;12.372;2023-06-14T21:04:22;17.70;66.40
36372;DHT22;22398;51.346;12.372;2023-06-14T21:09:26;17.80;66.50
36372;DHT22;22398;51.346;12.372;2023-06-14T21:14:31;17.90;66.50
36372;DHT22;22398;51.346;12.372;2023-06-14T21:19:35;17.90;66.50
36372;DHT22;22398;51.346;12.372;2023-06-14T21:24:39;17.90;66.50
36372;DHT22;22398;51.346;12.372;2023-06-14T21:29:44;17.80;66.60
36372;DHT22;22398;51.346;12.372;2023-06-14T21:34:47;17.70;66.80
36372;DHT22;22398;51.346;12.372;2023-06-14T21:39:50;17.70;66.80
36372;DHT22;22398;51.346;12.372;2023-06-14T21:44:54;17.90;66.60
36372;DHT22;22398;51.346;12.372;2023-06-14T21:49:57;17.90;66.30
36372;DHT22;22398;51.346;12.372;2023-06-14T21:55:00;17.80;66.20
36372;DHT22;22398;51.346;12.372;2023-06-14T22:00:05;17.70;66.40
36372;DHT22;22398;51.346;12.372;2023-06-14T22:05:11;17.70;66.60
36372;DHT22;22398;51.346;12.372;2023-06-14T22:10:14;17.60;66.90
36372;DHT22;22398;51.346;12.372;2023-06-14T22:15:21;17.40;67.00
36372;DHT22;22398;51.346;12.372;2023-06-14T22:20:24;17.40;67.40
36372;DHT22;22398;51.346;12.372;2023-06-14T22:25:30;17.30;67.60
36372;DHT22;22398;51.346;12.372;2023-06-14T22:30:36;17.20;67.90
36372;DHT22;22398;51.346;12.372;2023-06-14T22:35:39;17.10;68.10
36372;DHT22;22398;51.346;12.372;2023-06-14T22:40:43;17.00;68.30
36372;DHT22;22398;51.346;12.372;2023-06-14T22:45:47;16.80;68.50
36372;DHT22;22398;51.346;12.372;2023-06-14T22:50:53;16.70;68.80
36372;DHT22;22398;51.346;12.372;2023-06-14T22:55:56;16.60;69.10
36372;DHT22;22398;51.346;12.372;2023-06-14T23:01:01;16.50;69.40
36372;DHT22;22398;51.346;12.372;2023-06-14T23:06:04;16.50;69.70
36372;DHT22;22398;51.346;12.372;2023-06-14T23:11:09;16.60;70.10
36372;DHT22;22398;51.346;12.372;2023-06-14T23:16:16;16.80;70.10
36372;DHT22;22398;51.346;12.372;2023-06-14T23:21:20;16.90;70.00
36372;DHT22;22398;51.346;12.372;2023-06-14T23:26:23;16.90;70.00
36372;DHT22;22398;51.346;12.372;2023-06-14T23:31:31;17.00;69.90
36372;DHT22;22398;51.346;12.372;2023-06-14T23:36:35;17.10;69.90
36372;DHT22;22398;51.346;12.372;2023-06-14T23:41:38;17.20;69.90
36372;DHT22;22398;51.346;12.372;2023-06-14T23:46:44;17.20;69.90
36372;DHT22;22398;51.346;12.372;2023-06-14T23:51:47;17.20;69.80
36372;DHT22;22398;51.346;12.372;2023-06-14T23:56:52;17.30;70.20
